sensor_id;sensor_type;location;lat;lon;timestamp;pressure;altitude;pressure_sealevel;temperature
15062;BMP180;7630;50.306;8.566;2024-03-29T00:02:34;95984.00;;;10.00
15062;BMP180;7630;50.306;8.566;2024-03-29T00:06:35;95960.00;;;9.80
15062;BMP180;7630;50.306;8.566;2024-03-29T00:10:36;95954.00;;;10.10
15062;BMP180;7630;50.306;8.566;2024-03-29T00:14:37;95945.00;;;10.60
15062;BMP180;7630;50.306;8.566;2024-03-29T00:18:38;95934.00;;;10.40
15062;BMP180;7630;50.306;8.566;2024-03-29T00:22:39;95920.00;;;10.70
15062;BMP180;7630;50.306;8.566;2024-03-29T00:26:40;95914.00;;;10.20
15062;BMP180;7630;50.306;8.566;2024-03-29T00:30:41;95922.00;;;10.50
15062;BMP180;7630;50.306;8.566;2024-03-29T00:34:42;95925.00;;;10.00
15062;BMP180;7630;50.306;8.566;2024-03-29T00:38:44;95914.00;;;9.70
15062;BMP180;7630;50.306;8.566;2024-03-29T00:42:46;95906.00;;;10.20
15062;BMP180;7630;50.306;8.566;2024-03-29T00:46:47;95904.00;;;10.20
15062;BMP180;7630;50.306;8.566;2024-03-29T00:50:48;95896.00;;;9.90
15062;BMP180;7630;50.306;8.566;2024-03-29T00:54:49;95910.00;;;10.40
15062;BMP180;7630;50.306;8.566;2024-03-29T00:58:51;95909.00;;;10.30
15062;BMP180;7630;50.306;8.566;2024-03-29T01:02:52;95918.00;;;10.10
15062;BMP180;7630;50.306;8.566;2024-03-29T01:06:53;95916.00;;;10.00
15062;BMP180;7630;50.306;8.566;2024-03-29T01:10:56;95932.00;;;10.60
15062;BMP180;7630;50.306;8.566;2024-03-29T01:14:58;95918.00;;;10.30
15062;BMP180;7630;50.306;8.566;2024-03-29T01:19:00;95913.00;;;9.60
15062;BMP180;7630;50.306;8.566;2024-03-29T01:23:01;95906.00;;;10.10
15062;BMP180;7630;50.306;8.566;2024-03-29T01:27:02;95894.00;;;11.00
15062;BMP180;7630;50.306;8.566;2024-03-29T01:31:05;95904.00;;;11.00
15062;BMP180;7630;50.306;8.566;2024-03-29T01:35:07;95892.00;;;10.70
15062;BMP180;7630;50.306;8.566;2024-03-29T01:39:08;95897.00;;;11.30
15062;BMP180;7630;50.306;8.566;2024-03-29T01:43:13;95885.00;;;11.10
15062;BMP180;7630;50.306;8.566;2024-03-29T01:47:16;95886.00;;;11.20
15062;BMP180;7630;50.306;8.566;2024-03-29T01:51:20;95881.00;;;11.00
15062;BMP180;7630;50.306;8.566;2024-03-29T01:55:25;95876.00;;;9.60
15062;BMP180;7630;50.306;8.566;2024-03-29T01:59:28;95855.00;;;11.10
15062;BMP180;7630;50.306;8.566;2024-03-29T02:03:30;95845.00;;;11.40
15062;BMP180;7630;50.306;8.566;2024-03-29T02:07:31;95837.00;;;11.80
15062;BMP180;7630;50.306;8.566;2024-03-29T02:11:34;95850.00;;;11.80
15062;BMP180;7630;50.306;8.566;2024-03-29T02:15:36;95843.00;;;11.30
15062;BMP180;7630;50.306;8.566;2024-03-29T02:19:37;95850.00;;;10.30
15062;BMP180;7630;50.306;8.566;2024-03-29T02:23:40;95857.00;;;11.10
15062;BMP180;7630;50.306;8.566;2024-03-29T02:27:43;95882.00;;;11.50
15062;BMP180;7630;50.306;8.566;2024-03-29T02:31:44;95880.00;;;10.40
15062;BMP180;7630;50.306;8.566;2024-03-29T02:35:45;95881.00;;;8.70
15062;BMP180;7630;50.306;8.566;2024-03-29T02:39:46;95875.00;;;10.60
15062;BMP180;7630;50.306;8.566;2024-03-29T02:43:47;95863.00;;;10.20
15062;BMP180;7630;50.306;8.566;2024-03-29T02:47:48;95862.00;;;9.10
15062;BMP180;7630;50.306;8.566;2024-03-29T02:51:49;95862.00;;;9.20
15062;BMP180;7630;50.306;8.566;2024-03-29T02:55:52;95861.00;;;8.90
15062;BMP180;7630;50.306;8.566;2024-03-29T02:59:53;95858.00;;;9.50
15062;BMP180;7630;50.306;8.566;2024-03-29T03:03:54;95873.00;;;9.60
15062;BMP180;7630;50.306;8.566;2024-03-29T03:07:55;95879.00;;;8.80
15062;BMP180;7630;50.306;8.566;2024-03-29T03:12:15;95900.00;;;9.60
15062;BMP180;7630;50.306;8.566;2024-03-29T03:16:16;95876.00;;;9.70
15062;BMP180;7630;50.306;8.566;2024-03-29T03:20:17;95865.00;;;9.80
15062;BMP180;7630;50.306;8.566;2024-03-29T03:24:18;95856.00;;;10.30
15062;BMP180;7630;50.306;8.566;2024-03-29T03:28:19;95850.00;;;10.30
15062;BMP180;7630;50.306;8.566;2024-03-29T03:32:20;95864.00;;;9.80
15062;BMP180;7630;50.306;8.566;2024-03-29T03:36:22;95846.00;;;10.00
15062;BMP180;7630;50.306;8.566;2024-03-29T03:40:24;95874.00;;;9.40
15062;BMP180;7630;50.306;8.566;2024-03-29T03:44:25;95849.00;;;8.90
15062;BMP180;7630;50.306;8.566;2024-03-29T03:48:26;95864.00;;;8.70
15062;BMP180;7630;50.306;8.566;2024-03-29T03:52:29;95878.00;;;8.70
15062;BMP180;7630;50.306;8.566;2024-03-29T03:56:30;95877.00;;;9.30
15062;BMP180;7630;50.306;8.566;2024-03-29T04:00:31;95867.00;;;9.90
15062;BMP180;7630;50.306;8.566;2024-03-29T04:04:32;95857.00;;;9.60
15062;BMP180;7630;50.306;8.566;2024-03-29T04:08:33;95856.00;;;9.50
15062;BMP180;7630;50.306;8.566;2024-03-29T04:12:34;95854.00;;;9.60
15062;BMP180;7630;50.306;8.566;2024-03-29T04:16:35;95857.00;;;8.70
15062;BMP180;7630;50.306;8.566;2024-03-29T04:20:36;95852.00;;;8.40
15062;BMP180;7630;50.306;8.566;2024-03-29T04:24:37;95853.00;;;8.50
15062;BMP180;7630;50.306;8.566;2024-03-29T04:28:38;95840.00;;;9.00
15062;BMP180;7630;50.306;8.566;2024-03-29T04:32:39;95836.00;;;8.50
15062;BMP180;7630;50.306;8.566;2024-03-29T04:36:40;95692.00;;;8.80
15062;BMP180;7630;50.306;8.566;2024-03-29T04:40:41;95823.00;;;9.10
15062;BMP180;7630;50.306;8.566;2024-03-29T04:44:42;95809.00;;;9.30
15062;BMP180;7630;50.306;8.566;2024-03-29T04:48:43;95823.00;;;9.20
15062;BMP180;7630;50.306;8.566;2024-03-29T04:52:46;95825.00;;;9.40
15062;BMP180;7630;50.306;8.566;2024-03-29T04:56:47;95819.00;;;9.40
15062;BMP180;7630;50.306;8.566;2024-03-29T05:00:49;95826.00;;;9.40
15062;BMP180;7630;50.306;8.566;2024-03-29T05:04:50;95821.00;;;9.40
15062;BMP180;7630;50.306;8.566;2024-03-29T05:08:51;95504.00;;;8.60
15062;BMP180;7630;50.306;8.566;2024-03-29T05:12:53;95823.00;;;9.00
15062;BMP180;7630;50.306;8.566;2024-03-29T05:16:55;95834.00;;;9.20
15062;BMP180;7630;50.306;8.566;2024-03-29T05:20:56;95776.00;;;9.40
15062;BMP180;7630;50.306;8.566;2024-03-29T05:24:57;95861.00;;;9.00
15062;BMP180;7630;50.306;8.566;2024-03-29T05:28:58;95861.00;;;8.70
15062;BMP180;7630;50.306;8.566;2024-03-29T05:33:00;95875.00;;;9.00
15062;BMP180;7630;50.306;8.566;2024-03-29T05:37:01;95866.00;;;9.20
15062;BMP180;7630;50.306;8.566;2024-03-29T05:41:03;95871.00;;;9.50
15062;BMP180;7630;50.306;8.566;2024-03-29T05:45:05;95873.00;;;9.40
15062;BMP180;7630;50.306;8.566;2024-03-29T05:49:07;95866.00;;;9.90
15062;BMP180;7630;50.306;8.566;2024-03-29T05:53:08;95866.00;;;10.00
15062;BMP180;7630;50.306;8.566;2024-03-29T05:57:09;95882.00;;;10.20
15062;BMP180;7630;50.306;8.566;2024-03-29T06:01:11;95881.00;;;9.50
15062;BMP180;7630;50.306;8.566;2024-03-29T06:05:12;95886.00;;;9.90
15062;BMP180;7630;50.306;8.566;2024-03-29T06:09:13;95889.00;;;8.60
15062;BMP180;7630;50.306;8.566;2024-03-29T06:13:14;95880.00;;;9.00
15062;BMP180;7630;50.306;8.566;2024-03-29T06:17:32;95883.00;;;8.70
15062;BMP180;7630;50.306;8.566;2024-03-29T06:21:35;95893.00;;;8.40
15062;BMP180;7630;50.306;8.566;2024-03-29T06:25:40;95885.00;;;8.20
15062;BMP180;7630;50.306;8.566;2024-03-29T06:29:41;95896.00;;;8.00
15062;BMP180;7630;50.306;8.566;2024-03-29T06:33:42;95893.00;;;9.00
15062;BMP180;7630;50.306;8.566;2024-03-29T06:37:43;95924.00;;;9.00
15062;BMP180;7630;50.306;8.566;2024-03-29T06:41:44;95907.00;;;9.80
15062;BMP180;7630;50.306;8.566;2024-03-29T06:45:45;95906.00;;;10.00
15062;BMP180;7630;50.306;8.566;2024-03-29T06:49:46;95905.00;;;10.60
15062;BMP180;7630;50.306;8.566;2024-03-29T06:53:47;95901.00;;;9.90
15062;BMP180;7630;50.306;8.566;2024-03-29T06:57:49;95892.00;;;9.40
15062;BMP180;7630;50.306;8.566;2024-03-29T07:01:50;95896.00;;;10.20
15062;BMP180;7630;50.306;8.566;2024-03-29T07:10:04;95896.00;;;8.90
15062;BMP180;7630;50.306;8.566;2024-03-29T07:14:06;95904.00;;;8.90
15062;BMP180;7630;50.306;8.566;2024-03-29T07:18:07;95901.00;;;8.90
15062;BMP180;7630;50.306;8.566;2024-03-29T07:22:08;95907.00;;;9.10
15062;BMP180;7630;50.306;8.566;2024-03-29T07:26:10;95913.00;;;9.20
15062;BMP180;7630;50.306;8.566;2024-03-29T07:30:13;95916.00;;;9.40
15062;BMP180;7630;50.306;8.566;2024-03-29T07:34:15;95923.00;;;9.50
15062;BMP180;7630;50.306;8.566;2024-03-29T07:38:16;95929.00;;;10.00
15062;BMP180;7630;50.306;8.566;2024-03-29T07:42:18;95937.00;;;10.70
15062;BMP180;7630;50.306;8.566;2024-03-29T07:46:20;95929.00;;;9.90
15062;BMP180;7630;50.306;8.566;2024-03-29T07:50:22;95920.00;;;10.50
15062;BMP180;7630;50.306;8.566;2024-03-29T07:54:25;95908.00;;;10.60
15062;BMP180;7630;50.306;8.566;2024-03-29T07:58:27;95917.00;;;11.50
15062;BMP180;7630;50.306;8.566;2024-03-29T08:02:28;95902.00;;;11.80
15062;BMP180;7630;50.306;8.566;2024-03-29T08:06:29;95901.00;;;11.70
15062;BMP180;7630;50.306;8.566;2024-03-29T08:10:30;95898.00;;;11.60
15062;BMP180;7630;50.306;8.566;2024-03-29T08:14:31;95900.00;;;10.80
15062;BMP180;7630;50.306;8.566;2024-03-29T08:18:33;95896.00;;;11.60
15062;BMP180;7630;50.306;8.566;2024-03-29T08:22:37;95777.00;;;11.20
15062;BMP180;7630;50.306;8.566;2024-03-29T08:26:38;95908.00;;;11.50
15062;BMP180;7630;50.306;8.566;2024-03-29T08:30:41;95910.00;;;12.20
15062;BMP180;7630;50.306;8.566;2024-03-29T08:34:42;95916.00;;;12.10
15062;BMP180;7630;50.306;8.566;2024-03-29T08:38:43;95918.00;;;11.30
15062;BMP180;7630;50.306;8.566;2024-03-29T08:42:47;95926.00;;;11.70
15062;BMP180;7630;50.306;8.566;2024-03-29T08:46:48;95929.00;;;11.30
15062;BMP180;7630;50.306;8.566;2024-03-29T08:50:49;95939.00;;;11.00
15062;BMP180;7630;50.306;8.566;2024-03-29T08:54:50;95929.00;;;11.20
15062;BMP180;7630;50.306;8.566;2024-03-29T08:58:51;95937.00;;;11.20
15062;BMP180;7630;50.306;8.566;2024-03-29T09:02:52;95950.00;;;11.60
15062;BMP180;7630;50.306;8.566;2024-03-29T09:06:53;95950.00;;;11.20
15062;BMP180;7630;50.306;8.566;2024-03-29T09:10:55;95962.00;;;11.40
15062;BMP180;7630;50.306;8.566;2024-03-29T09:14:56;95964.00;;;11.40
15062;BMP180;7630;50.306;8.566;2024-03-29T09:18:57;95974.00;;;11.60
15062;BMP180;7630;50.306;8.566;2024-03-29T09:22:58;95988.00;;;11.30
15062;BMP180;7630;50.306;8.566;2024-03-29T09:27:00;95992.00;;;11.60
15062;BMP180;7630;50.306;8.566;2024-03-29T09:31:01;95998.00;;;11.70
15062;BMP180;7630;50.306;8.566;2024-03-29T09:35:03;95983.00;;;10.90
15062;BMP180;7630;50.306;8.566;2024-03-29T09:39:04;95983.00;;;10.30
15062;BMP180;7630;50.306;8.566;2024-03-29T09:43:06;95990.00;;;11.80
15062;BMP180;7630;50.306;8.566;2024-03-29T09:47:10;95991.00;;;11.40
15062;BMP180;7630;50.306;8.566;2024-03-29T09:51:13;95994.00;;;10.60
15062;BMP180;7630;50.306;8.566;2024-03-29T09:55:16;96007.00;;;11.40
15062;BMP180;7630;50.306;8.566;2024-03-29T09:59:21;96015.00;;;12.80
15062;BMP180;7630;50.306;8.566;2024-03-29T10:03:27;96027.00;;;12.20
15062;BMP180;7630;50.306;8.566;2024-03-29T10:07:31;96006.00;;;12.50
15062;BMP180;7630;50.306;8.566;2024-03-29T10:11:35;96015.00;;;10.70
15062;BMP180;7630;50.306;8.566;2024-03-29T10:15:36;96035.00;;;10.50
15062;BMP180;7630;50.306;8.566;2024-03-29T10:19:39;96013.00;;;10.30
15062;BMP180;7630;50.306;8.566;2024-03-29T10:23:40;96015.00;;;11.50
15062;BMP180;7630;50.306;8.566;2024-03-29T10:27:42;96031.00;;;11.90
15062;BMP180;7630;50.306;8.566;2024-03-29T10:31:43;96031.00;;;11.70
15062;BMP180;7630;50.306;8.566;2024-03-29T10:35:45;96020.00;;;12.20
15062;BMP180;7630;50.306;8.566;2024-03-29T10:39:46;96029.00;;;12.80
15062;BMP180;7630;50.306;8.566;2024-03-29T10:43:49;96022.00;;;13.20
15062;BMP180;7630;50.306;8.566;2024-03-29T10:47:52;96010.00;;;12.30
15062;BMP180;7630;50.306;8.566;2024-03-29T10:51:55;96014.00;;;11.50
15062;BMP180;7630;50.306;8.566;2024-03-29T10:56:00;96024.00;;;12.90
15062;BMP180;7630;50.306;8.566;2024-03-29T11:00:04;96021.00;;;12.30
15062;BMP180;7630;50.306;8.566;2024-03-29T11:04:12;96008.00;;;12.60
15062;BMP180;7630;50.306;8.566;2024-03-29T11:08:11;96012.00;;;11.10
15062;BMP180;7630;50.306;8.566;2024-03-29T11:12:14;96006.00;;;11.80
15062;BMP180;7630;50.306;8.566;2024-03-29T11:16:17;95997.00;;;12.10
15062;BMP180;7630;50.306;8.566;2024-03-29T11:20:19;95989.00;;;12.50
15062;BMP180;7630;50.306;8.566;2024-03-29T11:24:23;95997.00;;;11.50
15062;BMP180;7630;50.306;8.566;2024-03-29T11:28:35;96012.00;;;11.90
15062;BMP180;7630;50.306;8.566;2024-03-29T11:32:37;95999.00;;;12.20
15062;BMP180;7630;50.306;8.566;2024-03-29T11:36:39;96013.00;;;12.10
15062;BMP180;7630;50.306;8.566;2024-03-29T11:40:40;96028.00;;;11.60
15062;BMP180;7630;50.306;8.566;2024-03-29T11:44:41;96034.00;;;12.90
15062;BMP180;7630;50.306;8.566;2024-03-29T11:48:43;96060.00;;;12.70
15062;BMP180;7630;50.306;8.566;2024-03-29T11:52:51;96079.00;;;13.00
15062;BMP180;7630;50.306;8.566;2024-03-29T11:56:52;96089.00;;;12.70
15062;BMP180;7630;50.306;8.566;2024-03-29T12:00:54;96078.00;;;13.40
15062;BMP180;7630;50.306;8.566;2024-03-29T12:04:55;96056.00;;;13.10
15062;BMP180;7630;50.306;8.566;2024-03-29T12:08:57;96063.00;;;12.80
15062;BMP180;7630;50.306;8.566;2024-03-29T12:12:59;96050.00;;;12.00
15062;BMP180;7630;50.306;8.566;2024-03-29T12:17:01;96058.00;;;12.90
15062;BMP180;7630;50.306;8.566;2024-03-29T12:21:02;96049.00;;;13.30
15062;BMP180;7630;50.306;8.566;2024-03-29T12:25:04;96067.00;;;13.20
15062;BMP180;7630;50.306;8.566;2024-03-29T12:29:06;95984.00;;;11.50
15062;BMP180;7630;50.306;8.566;2024-03-29T12:33:18;96023.00;;;12.40
15062;BMP180;7630;50.306;8.566;2024-03-29T12:37:22;96027.00;;;11.60
15062;BMP180;7630;50.306;8.566;2024-03-29T12:41:24;96027.00;;;11.80
15062;BMP180;7630;50.306;8.566;2024-03-29T12:45:25;96068.00;;;12.00
15062;BMP180;7630;50.306;8.566;2024-03-29T12:49:27;96082.00;;;11.80
15062;BMP180;7630;50.306;8.566;2024-03-29T12:53:28;96093.00;;;11.90
15062;BMP180;7630;50.306;8.566;2024-03-29T12:57:29;96088.00;;;12.60
15062;BMP180;7630;50.306;8.566;2024-03-29T13:01:32;96101.00;;;12.40
15062;BMP180;7630;50.306;8.566;2024-03-29T13:05:38;96116.00;;;12.50
15062;BMP180;7630;50.306;8.566;2024-03-29T13:09:42;96126.00;;;12.80
15062;BMP180;7630;50.306;8.566;2024-03-29T13:13:44;96122.00;;;12.30
15062;BMP180;7630;50.306;8.566;2024-03-29T13:17:46;96108.00;;;13.20
15062;BMP180;7630;50.306;8.566;2024-03-29T13:21:47;96105.00;;;12.40
15062;BMP180;7630;50.306;8.566;2024-03-29T13:25:48;96100.00;;;11.10
15062;BMP180;7630;50.306;8.566;2024-03-29T13:29:49;96109.00;;;11.30
15062;BMP180;7630;50.306;8.566;2024-03-29T13:33:50;96108.00;;;11.40
15062;BMP180;7630;50.306;8.566;2024-03-29T13:37:52;96105.00;;;12.10
15062;BMP180;7630;50.306;8.566;2024-03-29T13:41:56;96105.00;;;11.90
15062;BMP180;7630;50.306;8.566;2024-03-29T13:45:57;96106.00;;;11.50
15062;BMP180;7630;50.306;8.566;2024-03-29T13:50:00;96094.00;;;12.60
15062;BMP180;7630;50.306;8.566;2024-03-29T13:54:02;96095.00;;;12.90
15062;BMP180;7630;50.306;8.566;2024-03-29T13:58:04;96101.00;;;13.20
15062;BMP180;7630;50.306;8.566;2024-03-29T14:02:05;96109.00;;;13.30
15062;BMP180;7630;50.306;8.566;2024-03-29T14:06:06;96112.00;;;13.20
15062;BMP180;7630;50.306;8.566;2024-03-29T14:10:09;96122.00;;;13.60
15062;BMP180;7630;50.306;8.566;2024-03-29T14:14:10;96114.00;;;13.30
15062;BMP180;7630;50.306;8.566;2024-03-29T14:18:14;96114.00;;;12.70
15062;BMP180;7630;50.306;8.566;2024-03-29T14:22:16;96118.00;;;13.40
15062;BMP180;7630;50.306;8.566;2024-03-29T14:26:17;96107.00;;;14.00
15062;BMP180;7630;50.306;8.566;2024-03-29T14:30:19;96103.00;;;13.50
15062;BMP180;7630;50.306;8.566;2024-03-29T14:34:20;96113.00;;;13.90
15062;BMP180;7630;50.306;8.566;2024-03-29T14:38:22;96120.00;;;11.60
15062;BMP180;7630;50.306;8.566;2024-03-29T14:42:23;96117.00;;;13.80
15062;BMP180;7630;50.306;8.566;2024-03-29T14:46:24;96114.00;;;14.30
15062;BMP180;7630;50.306;8.566;2024-03-29T14:50:26;96110.00;;;12.50
15062;BMP180;7630;50.306;8.566;2024-03-29T14:54:27;96122.00;;;14.00
15062;BMP180;7630;50.306;8.566;2024-03-29T14:58:28;96112.00;;;14.50
15062;BMP180;7630;50.306;8.566;2024-03-29T15:02:29;96109.00;;;14.40
15062;BMP180;7630;50.306;8.566;2024-03-29T15:06:30;96123.00;;;14.40
15062;BMP180;7630;50.306;8.566;2024-03-29T15:10:31;96118.00;;;13.70
15062;BMP180;7630;50.306;8.566;2024-03-29T15:14:35;96107.00;;;14.40
15062;BMP180;7630;50.306;8.566;2024-03-29T15:18:36;96109.00;;;14.40
15062;BMP180;7630;50.306;8.566;2024-03-29T15:22:38;96096.00;;;14.90
15062;BMP180;7630;50.306;8.566;2024-03-29T15:26:41;96101.00;;;14.80
15062;BMP180;7630;50.306;8.566;2024-03-29T15:30:42;96082.00;;;14.40
15062;BMP180;7630;50.306;8.566;2024-03-29T15:34:45;96082.00;;;14.30
15062;BMP180;7630;50.306;8.566;2024-03-29T15:38:46;95934.00;;;14.20
15062;BMP180;7630;50.306;8.566;2024-03-29T15:42:49;96075.00;;;14.30
15062;BMP180;7630;50.306;8.566;2024-03-29T15:46:50;96060.00;;;12.20
15062;BMP180;7630;50.306;8.566;2024-03-29T15:50:51;96075.00;;;14.00
15062;BMP180;7630;50.306;8.566;2024-03-29T15:54:52;96083.00;;;13.60
15062;BMP180;7630;50.306;8.566;2024-03-29T15:58:55;96103.00;;;13.40
15062;BMP180;7630;50.306;8.566;2024-03-29T16:02:58;96056.00;;;12.60
15062;BMP180;7630;50.306;8.566;2024-03-29T16:06:59;96055.00;;;13.00
15062;BMP180;7630;50.306;8.566;2024-03-29T16:11:02;96073.00;;;14.20
15062;BMP180;7630;50.306;8.566;2024-03-29T16:15:04;96078.00;;;14.60
15062;BMP180;7630;50.306;8.566;2024-03-29T16:19:07;96076.00;;;13.20
15062;BMP180;7630;50.306;8.566;2024-03-29T16:23:08;96075.00;;;13.50
15062;BMP180;7630;50.306;8.566;2024-03-29T16:27:09;96079.00;;;14.10
15062;BMP180;7630;50.306;8.566;2024-03-29T16:31:10;96093.00;;;13.60
15062;BMP180;7630;50.306;8.566;2024-03-29T16:35:11;96109.00;;;13.70
15062;BMP180;7630;50.306;8.566;2024-03-29T16:39:12;96132.00;;;13.00
15062;BMP180;7630;50.306;8.566;2024-03-29T16:43:14;96134.00;;;13.10
15062;BMP180;7630;50.306;8.566;2024-03-29T16:47:15;96106.00;;;12.80
15062;BMP180;7630;50.306;8.566;2024-03-29T16:51:16;96105.00;;;12.40
15062;BMP180;7630;50.306;8.566;2024-03-29T16:55:17;96115.00;;;12.10
15062;BMP180;7630;50.306;8.566;2024-03-29T16:59:18;96131.00;;;12.50
15062;BMP180;7630;50.306;8.566;2024-03-29T17:03:19;96142.00;;;12.50
15062;BMP180;7630;50.306;8.566;2024-03-29T17:07:20;96147.00;;;13.40
15062;BMP180;7630;50.306;8.566;2024-03-29T17:11:21;96146.00;;;13.50
15062;BMP180;7630;50.306;8.566;2024-03-29T17:15:22;96139.00;;;14.20
15062;BMP180;7630;50.306;8.566;2024-03-29T17:19:24;96150.00;;;14.00
15062;BMP180;7630;50.306;8.566;2024-03-29T17:23:25;96145.00;;;13.60
15062;BMP180;7630;50.306;8.566;2024-03-29T17:27:34;96143.00;;;14.10
15062;BMP180;7630;50.306;8.566;2024-03-29T17:31:31;96140.00;;;14.40
15062;BMP180;7630;50.306;8.566;2024-03-29T17:35:33;96145.00;;;14.30
15062;BMP180;7630;50.306;8.566;2024-03-29T17:39:34;96129.00;;;14.20
15062;BMP180;7630;50.306;8.566;2024-03-29T17:43:35;96132.00;;;14.80
15062;BMP180;7630;50.306;8.566;2024-03-29T17:47:36;96151.00;;;14.50
15062;BMP180;7630;50.306;8.566;2024-03-29T17:51:37;96161.00;;;14.70
15062;BMP180;7630;50.306;8.566;2024-03-29T17:55:38;96150.00;;;14.80
15062;BMP180;7630;50.306;8.566;2024-03-29T17:59:39;96152.00;;;14.70
15062;BMP180;7630;50.306;8.566;2024-03-29T18:03:42;96141.00;;;14.30
15062;BMP180;7630;50.306;8.566;2024-03-29T18:07:44;96127.00;;;14.40
15062;BMP180;7630;50.306;8.566;2024-03-29T18:11:46;96147.00;;;14.10
15062;BMP180;7630;50.306;8.566;2024-03-29T18:15:47;96132.00;;;12.10
15062;BMP180;7630;50.306;8.566;2024-03-29T18:19:48;96123.00;;;12.70
15062;BMP180;7630;50.306;8.566;2024-03-29T18:23:49;96132.00;;;13.60
15062;BMP180;7630;50.306;8.566;2024-03-29T18:27:50;96126.00;;;14.10
15062;BMP180;7630;50.306;8.566;2024-03-29T18:31:51;96136.00;;;14.30
15062;BMP180;7630;50.306;8.566;2024-03-29T18:35:52;96134.00;;;14.30
15062;BMP180;7630;50.306;8.566;2024-03-29T18:39:55;96131.00;;;13.80
15062;BMP180;7630;50.306;8.566;2024-03-29T18:43:56;96128.00;;;13.10
15062;BMP180;7630;50.306;8.566;2024-03-29T18:47:57;96125.00;;;12.60
15062;BMP180;7630;50.306;8.566;2024-03-29T18:51:58;96127.00;;;13.70
15062;BMP180;7630;50.306;8.566;2024-03-29T18:56:01;96127.00;;;13.70
15062;BMP180;7630;50.306;8.566;2024-03-29T19:00:05;96130.00;;;13.80
15062;BMP180;7630;50.306;8.566;2024-03-29T19:04:08;96144.00;;;13.80
15062;BMP180;7630;50.306;8.566;2024-03-29T19:08:09;96149.00;;;14.20
15062;BMP180;7630;50.306;8.566;2024-03-29T19:12:10;96147.00;;;13.60
15062;BMP180;7630;50.306;8.566;2024-03-29T19:16:11;96143.00;;;13.40
15062;BMP180;7630;50.306;8.566;2024-03-29T19:20:13;96143.00;;;13.70
15062;BMP180;7630;50.306;8.566;2024-03-29T19:24:14;96137.00;;;13.80
15062;BMP180;7630;50.306;8.566;2024-03-29T19:28:15;96142.00;;;13.90
15062;BMP180;7630;50.306;8.566;2024-03-29T19:32:19;96130.00;;;13.70
15062;BMP180;7630;50.306;8.566;2024-03-29T19:36:20;96127.00;;;13.20
15062;BMP180;7630;50.306;8.566;2024-03-29T19:40:21;96125.00;;;13.10
15062;BMP180;7630;50.306;8.566;2024-03-29T19:44:22;96126.00;;;13.50
15062;BMP180;7630;50.306;8.566;2024-03-29T19:48:23;96136.00;;;13.40
15062;BMP180;7630;50.306;8.566;2024-03-29T19:52:24;96139.00;;;13.70
15062;BMP180;7630;50.306;8.566;2024-03-29T19:56:25;96133.00;;;13.10
15062;BMP180;7630;50.306;8.566;2024-03-29T20:00:27;96121.00;;;12.70
15062;BMP180;7630;50.306;8.566;2024-03-29T20:04:28;96125.00;;;12.10
15062;BMP180;7630;50.306;8.566;2024-03-29T20:08:31;96127.00;;;13.10
15062;BMP180;7630;50.306;8.566;2024-03-29T20:12:32;96134.00;;;13.00
15062;BMP180;7630;50.306;8.566;2024-03-29T20:16:34;96125.00;;;12.40
15062;BMP180;7630;50.306;8.566;2024-03-29T20:20:36;96121.00;;;13.20
15062;BMP180;7630;50.306;8.566;2024-03-29T20:24:37;96121.00;;;13.50
15062;BMP180;7630;50.306;8.566;2024-03-29T20:28:38;96120.00;;;13.40
15062;BMP180;7630;50.306;8.566;2024-03-29T20:32:39;96121.00;;;13.40
15062;BMP180;7630;50.306;8.566;2024-03-29T20:36:41;96107.00;;;13.80
15062;BMP180;7630;50.306;8.566;2024-03-29T20:40:42;96115.00;;;13.80
15062;BMP180;7630;50.306;8.566;2024-03-29T20:44:48;96111.00;;;13.40
15062;BMP180;7630;50.306;8.566;2024-03-29T20:48:50;96103.00;;;11.80
15062;BMP180;7630;50.306;8.566;2024-03-29T20:52:52;96095.00;;;13.60
15062;BMP180;7630;50.306;8.566;2024-03-29T20:56:53;96098.00;;;13.90
15062;BMP180;7630;50.306;8.566;2024-03-29T21:00:54;96109.00;;;14.10
15062;BMP180;7630;50.306;8.566;2024-03-29T21:04:58;96110.00;;;14.40
15062;BMP180;7630;50.306;8.566;2024-03-29T21:09:18;96100.00;;;13.60
15062;BMP180;7630;50.306;8.566;2024-03-29T21:13:19;96101.00;;;13.10
15062;BMP180;7630;50.306;8.566;2024-03-29T21:17:20;96105.00;;;13.40
15062;BMP180;7630;50.306;8.566;2024-03-29T21:21:21;96104.00;;;13.40
15062;BMP180;7630;50.306;8.566;2024-03-29T21:25:23;96099.00;;;12.00
15062;BMP180;7630;50.306;8.566;2024-03-29T21:29:24;96105.00;;;13.00
15062;BMP180;7630;50.306;8.566;2024-03-29T21:33:25;96110.00;;;12.50
15062;BMP180;7630;50.306;8.566;2024-03-29T21:37:26;96118.00;;;11.50
15062;BMP180;7630;50.306;8.566;2024-03-29T21:41:27;96109.00;;;13.10
15062;BMP180;7630;50.306;8.566;2024-03-29T21:45:29;96116.00;;;12.40
15062;BMP180;7630;50.306;8.566;2024-03-29T21:49:30;96104.00;;;12.90
15062;BMP180;7630;50.306;8.566;2024-03-29T21:53:31;96085.00;;;13.40
15062;BMP180;7630;50.306;8.566;2024-03-29T21:57:32;96088.00;;;13.30
15062;BMP180;7630;50.306;8.566;2024-03-29T22:01:33;96088.00;;;13.20
15062;BMP180;7630;50.306;8.566;2024-03-29T22:05:35;96109.00;;;12.40
15062;BMP180;7630;50.306;8.566;2024-03-29T22:09:37;96114.00;;;13.70
15062;BMP180;7630;50.306;8.566;2024-03-29T22:13:39;96097.00;;;12.30
15062;BMP180;7630;50.306;8.566;2024-03-29T22:17:40;96082.00;;;12.30
15062;BMP180;7630;50.306;8.566;2024-03-29T22:21:41;96081.00;;;13.20
15062;BMP180;7630;50.306;8.566;2024-03-29T22:25:42;96090.00;;;13.80
15062;BMP180;7630;50.306;8.566;2024-03-29T22:29:45;96089.00;;;13.00
15062;BMP180;7630;50.306;8.566;2024-03-29T22:33:47;96086.00;;;12.60
15062;BMP180;7630;50.306;8.566;2024-03-29T22:37:48;96102.00;;;12.60
15062;BMP180;7630;50.306;8.566;2024-03-29T22:41:49;96098.00;;;12.40
15062;BMP180;7630;50.306;8.566;2024-03-29T22:45:50;96101.00;;;13.10
15062;BMP180;7630;50.306;8.566;2024-03-29T22:49:51;96096.00;;;12.80
15062;BMP180;7630;50.306;8.566;2024-03-29T22:53:52;96082.00;;;11.80
15062;BMP180;7630;50.306;8.566;2024-03-29T22:57:53;96079.00;;;11.40
15062;BMP180;7630;50.306;8.566;2024-03-29T23:01:54;96084.00;;;12.80
15062;BMP180;7630;50.306;8.566;2024-03-29T23:05:55;96074.00;;;13.10
15062;BMP180;7630;50.306;8.566;2024-03-29T23:09:56;96093.00;;;12.30
15062;BMP180;7630;50.306;8.566;2024-03-29T23:13:59;96077.00;;;10.90
15062;BMP180;7630;50.306;8.566;2024-03-29T23:18:01;95818.00;;;11.20
15062;BMP180;7630;50.306;8.566;2024-03-29T23:22:03;96056.00;;;12.00
15062;BMP180;7630;50.306;8.566;2024-03-29T23:26:05;96062.00;;;13.30
15062;BMP180;7630;50.306;8.566;2024-03-29T23:30:07;96059.00;;;13.10
15062;BMP180;7630;50.306;8.566;2024-03-29T23:34:08;96066.00;;;13.30
15062;BMP180;7630;50.306;8.566;2024-03-29T23:38:09;96068.00;;;13.30
15062;BMP180;7630;50.306;8.566;2024-03-29T23:42:10;96074.00;;;11.60